ADDS METAR Data INFO
IDs: Format: Raw Decoded Include TAF

Data at: 2319 UTC 15 Jul 2018

K4M9 152315Z AUTO 27009G17KT 4SM TS FEW034 OVC060 26/26 A2997 RMK AO2 PWINO
K4M9 152255Z AUTO 30013KT 10SM TS FEW037 BKN060 BKN075 27/26 A2996 RMK AO2 LTG DSNT ALQDS PWINO
K4M9 152235Z AUTO 22013G18KT 10SM VCTS CLR 28/25 A2993 RMK AO2 LTG DSNT ALQDS PWINO
K4M9 152215Z AUTO 20013KT 10SM CLR 28/25 A2993 RMK AO2 LTG DSNT ALQDS PWINO
K4M9 152155Z AUTO 19007KT 10SM CLR 29/26 A2993 RMK AO2 LTG DSNT ALQDS PWINO
K4M9 152135Z AUTO 21004KT 10SM VCTS CLR 29/26 A2992 RMK AO2 LTG DSNT E-S PWINO
K4M9 152115Z AUTO 19006KT 10SM CLR 28/25 A2993 RMK AO2 LTG DSNT S AND SW PWINO
K4M9 152055Z AUTO 17005KT 10SM CLR 29/25 A2994 RMK AO2 LTG DSNT ALQDS PWINO
K4M9 152035Z AUTO 16005KT 10SM CLR 28/25 A2993 RMK AO2 LTG DSNT SE AND S PWINO
K4M9 152015Z AUTO 20005KT 10SM CLR 27/26 A2995 RMK AO2 LTG DSNT SE-SW PWINO
K4M9 151955Z AUTO 20006KT 4SM VCTS BR CLR 27/25 A2996 RMK AO2 LTG DSNT ALQDS PWINO
K4M9 151935Z AUTO 33007KT 2SM BR SCT032 SCT050 BKN075 30/29 A2997 RMK AO2 LTG DSNT S AND SW VIS 1V5 PWINO
K4M9 151915Z AUTO VRB03KT 10SM FEW032 33/27 A2996 RMK AO2 LTG DSNT SW-N PWINO
K4M9 151855Z AUTO 00000KT 10SM CLR 33/27 A2996 RMK AO2 PWINO
K4M9 151835Z AUTO 21004KT 10SM CLR 33/27 A2997 RMK AO2 PWINO
K4M9 151815Z AUTO VRB05KT 10SM CLR 33/27 A2998 RMK AO2 PWINO
K4M9 151755Z AUTO 16005KT 10SM FEW025 32/27 A2999 RMK AO2 PWINO
K4M9 151735Z AUTO 10003KT 10SM FEW023 32/27 A3000 RMK AO2 PWINO
K4M9 151715Z AUTO 00000KT 10SM FEW021 32/27 A3000 RMK AO2 PWINO
K4M9 151655Z AUTO 00000KT 10SM CLR 31/26 A3000 RMK AO2 PWINO
K4M9 151635Z AUTO 00000KT 10SM FEW019 31/26 A3001 RMK AO2 PWINO
K4M9 151615Z AUTO VRB04KT 10SM FEW019 30/26 A3001 RMK AO2 PWINO
K4M9 151555Z AUTO VRB04KT 10SM FEW060 30/26 A3001 RMK AO2 PWINO
K4M9 151535Z AUTO VRB03KT 10SM FEW014 BKN060 29/26 A3001 RMK AO2 PWINO
K4M9 151515Z AUTO 04005KT 10SM SCT014 SCT060 29/26 A3001 RMK AO2 PWINO
K4M9 151455Z AUTO 34004G10KT 10SM SCT013 SCT065 28/28 A3001 RMK AO2 PWINO
K4M9 151435Z AUTO 32008KT 10SM CLR 28/27 A3002 RMK AO2 PWINO
K4M9 151415Z AUTO 00000KT 10SM CLR 27/27 A3001 RMK AO2 PWINO
K4M9 151355Z AUTO 34004KT 9SM CLR 27/27 A3001 RMK AO2 PWINO
K4M9 151335Z AUTO 33005KT 9SM CLR 27/27 A3001 RMK AO2 PWINO
K4M9 151315Z AUTO 00000KT 10SM CLR 27/27 A3000 RMK AO2 PWINO
K4M9 151255Z AUTO 00000KT 10SM CLR 26/26 A3000 RMK AO2 PWINO
K4M9 151235Z AUTO 00000KT 5SM BR CLR 25/25 A3000 RMK AO2 PWINO
K4M9 151215Z AUTO 00000KT 1SM BR CLR 25/25 A3000 RMK AO2 PWINO
K4M9 151155Z AUTO 33004KT 1SM BR CLR 25/25 A3000 RMK AO2 PWINO
K4M9 151135Z AUTO 00000KT 8SM FEW100 25/25 A2999 RMK AO2 PWINO
K4M9 151115Z AUTO 33003KT 6SM BR FEW095 25/25 A2999 RMK AO2 PWINO
K4M9 151055Z AUTO 00000KT 10SM FEW090 24/25 A2998 RMK AO2 PWINO
K4M9 151035Z AUTO 00000KT 9SM CLR 24/25 A2998 RMK AO2 PWINO
K4M9 151015Z AUTO 00000KT 10SM CLR 24/24 A2998 RMK AO2 PWINO
K4M9 150955Z AUTO 00000KT 10SM CLR 24/24 A2998 RMK AO2 PWINO
K4M9 150935Z AUTO 00000KT 10SM CLR 25/25 A2998 RMK AO2 PWINO
K4M9 150915Z AUTO 02004KT 10SM CLR 25/25 A2998 RMK AO2 PWINO
K4M9 150855Z AUTO 05004KT 10SM CLR 25/25 A2998 RMK AO2 PWINO
K4M9 150835Z AUTO 06006KT 10SM CLR 25/25 A2998 RMK AO2 PWINO
K4M9 150815Z AUTO 06007G12KT 10SM CLR 26/25 A2998 RMK AO2 PWINO
K4M9 150755Z AUTO 06007KT 10SM CLR 26/25 A2999 RMK AO2 PWINO
K4M9 150735Z AUTO 03008KT 10SM FEW100 26/24 A2999 RMK AO2 PWINO
K4M9 150715Z AUTO 04008KT 10SM BKN100 26/24 A3000 RMK AO2 PWINO
K4M9 150655Z AUTO 03007G13KT 10SM SCT080 SCT090 27/24 A3001 RMK AO2 PWINO
K4M9 150635Z AUTO 04013G18KT 10SM OVC080 27/26 A3001 RMK AO2 PWINO
K4M9 150615Z AUTO 36004KT 10SM BKN080 BKN090 27/27 A3000 RMK AO2 PWINO
K4M9 150555Z AUTO 24003KT 10SM FEW085 27/27 A3000 RMK AO2 PWINO
K4M9 150535Z AUTO 22004KT 10SM BKN085 BKN110 27/27 A3000 RMK AO2 LTG DSNT N PWINO
K4M9 150515Z AUTO 22005KT 10SM SCT080 SCT090 BKN110 27/27 A3000 RMK AO2 LTG DSNT N AND NE PWINO
K4M9 150455Z AUTO 28006KT 10SM OVC090 28/27 A3001 RMK AO2 LTG DSNT N AND NE PWINO
K4M9 150435Z AUTO 18007KT 10SM BKN095 28/26 A2999 RMK AO2 LTG DSNT NW-NE PWINO
K4M9 150415Z AUTO 18005KT 10SM CLR 28/26 A2999 RMK AO2 LTG DSNT N AND NE PWINO
K4M9 150355Z AUTO 16005KT 10SM CLR 29/26 A2999 RMK AO2 LTG DSNT NW-NE PWINO
K4M9 150335Z AUTO 15005KT 10SM CLR 28/26 A2999 RMK AO2 LTG DSNT N AND NW PWINO
K4M9 150315Z AUTO 14005KT 10SM CLR 29/26 A2998 RMK AO2 LTG DSNT N AND NW PWINO
K4M9 150255Z AUTO 20006KT 10SM CLR 28/26 A2998 RMK AO2 LTG DSNT NW PWINO
K4M9 150235Z AUTO 21006KT 10SM CLR 29/26 A2997 RMK AO2 PWINO
K4M9 150215Z AUTO 17006KT 10SM CLR 30/26 A2996 RMK AO2 PWINO
K4M9 150155Z AUTO 18007KT 10SM CLR 30/26 A2996 RMK AO2 LTG DSNT SW-N PWINO
K4M9 150135Z AUTO 18005KT 10SM CLR 30/26 A2996 RMK AO2 PWINO
K4M9 150115Z AUTO 20006KT 10SM CLR 31/27 A2996 RMK AO2 LTG DSNT N AND W PWINO
K4M9 150055Z AUTO 21005KT 10SM CLR 31/27 A2996 RMK AO2 LTG DSNT N PWINO
K4M9 150035Z AUTO 19006KT 10SM CLR 33/27 A2995 RMK AO2 PWINO
K4M9 150015Z AUTO 18005KT 10SM CLR 33/27 A2994 RMK AO2 PWINO
K4M9 142355Z AUTO 18005KT 10SM CLR 34/27 A2994 RMK AO2 PWINO
K4M9 142335Z AUTO 18008KT 10SM CLR 35/27 A2993 RMK AO2 PWINO
K4M9 142315Z AUTO 18009KT 10SM CLR 35/27 A2992 RMK AO2 PWINO
K4M9 142255Z AUTO 18008KT 10SM CLR 36/27 A2993 RMK AO2 PWINO
K4M9 142235Z AUTO 18007KT 10SM CLR 36/26 A2994 RMK AO2 PWINO
K4M9 142215Z AUTO 19008KT 10SM CLR 36/26 A2994 RMK AO2 PWINO
K4M9 142155Z AUTO 17010KT 10SM CLR 36/26 A2994 RMK AO2 LTG DSNT N AND NW PWINO
K4M9 142135Z AUTO 18008G14KT 10SM CLR 36/26 A2995 RMK AO2 PWINO
K4M9 142115Z AUTO 17012KT 10SM CLR 36/26 A2995 RMK AO2 PWINO
K4M9 142055Z AUTO 17010KT 10SM CLR 36/26 A2996 RMK AO2 PWINO
K4M9 142035Z AUTO 18008G13KT 10SM CLR 36/26 A2997 RMK AO2 PWINO
K4M9 142015Z AUTO 18008G13KT 10SM CLR 36/26 A2998 RMK AO2 LTG DSNT N AND NE PWINO
K4M9 141955Z AUTO 19009KT 10SM CLR 36/27 A2998 RMK AO2 PWINO
K4M9 141935Z AUTO 16008KT 10SM CLR 36/26 A2999 RMK AO2 PWINO
K4M9 141915Z AUTO 20006KT 10SM CLR 36/26 A2999 RMK AO2 LTG DSNT N AND NE PWINO
K4M9 141855Z AUTO 17007KT 10SM CLR 36/26 A3001 RMK AO2 PWINO
K4M9 141835Z AUTO 19006KT 10SM CLR 36/26 A3002 RMK AO2 PWINO
K4M9 141815Z AUTO 23005KT 10SM CLR 35/26 A3003 RMK AO2 PWINO
K4M9 141755Z AUTO 22004KT 10SM CLR 35/27 A3003 RMK AO2 PWINO
K4M9 141735Z AUTO 00000KT 10SM CLR 35/27 A3004 RMK AO2 PWINO
K4M9 141715Z AUTO 22004KT 10SM CLR 35/27 A3004 RMK AO2 PWINO
K4M9 141655Z AUTO VRB04KT 9SM CLR 34/27 A3005 RMK AO2 PWINO
K4M9 141635Z AUTO 00000KT 10SM CLR 34/27 A3005 RMK AO2 PWINO
K4M9 141615Z AUTO VRB03KT 10SM CLR 33/27 A3005 RMK AO2 PWINO
K4M9 141555Z AUTO 00000KT 9SM CLR 33/28 A3005 RMK AO2 PWINO
K4M9 141535Z AUTO 25004KT 10SM CLR 32/27 A3005 RMK AO2 PWINO
K4M9 141515Z AUTO 21004KT 10SM CLR 32/28 A3004 RMK AO2 PWINO
K4M9 141455Z AUTO 22005KT 10SM CLR 31/27 A3005 RMK AO2 PWINO
K4M9 141435Z AUTO 26007KT 10SM CLR 31/27 A3005 RMK AO2 PWINO
K4M9 141415Z AUTO 25005KT 10SM CLR 30/27 A3005 RMK AO2 PWINO
K4M9 141355Z AUTO 24006KT 10SM CLR 30/27 A3005 RMK AO2 PWINO
K4M9 141335Z AUTO 23007KT 10SM CLR 29/27 A3005 RMK AO2 PWINO
K4M9 141315Z AUTO 230KT 10SM CLR 29/28 A3005 RMK AO2 PWINO
K4M9 141255Z AUTO 22006KT 10SM CLR 28/28 A3005 RMK AO2 PWINO
K4M9 141235Z AUTO 23005KT 10SM CLR 28/28 A3005 RMK AO2 PWINO
K4M9 141215Z AUTO 21006KT 10SM CLR 27/27 A3004 RMK AO2 PWINO
K4M9 141155Z AUTO 19004KT 10SM CLR 27/27 A3004 RMK AO2 PWINO
K4M9 141135Z AUTO 17003KT 10SM CLR 26/27 A3004 RMK AO2 PWINO